createdAt,value
2023-03-21T00:00:29.628Z,99027.13
2023-03-21T00:05:57.417Z,99026.83
2023-03-21T00:11:06.754Z,99022.15
2023-03-21T00:16:23.348Z,99018.29
2023-03-21T00:21:49.118Z,99012.79
2023-03-21T00:27:10.690Z,99012.52
2023-03-21T00:32:27.364Z,99013.83
2023-03-21T00:37:35.984Z,99009.11
2023-03-21T00:42:43.694Z,99010.02
2023-03-21T00:47:51.641Z,99000.67
2023-03-21T00:52:59.718Z,98991.30
2023-03-21T00:58:08.372Z,98990.80
2023-03-21T01:14:37.060Z,98989.95
2023-03-21T01:19:51.482Z,98996.06
2023-03-21T01:25:12.168Z,98996.89
2023-03-21T01:30:31.222Z,98995.75
2023-03-21T01:35:49.177Z,98994.63
2023-03-21T01:41:06.188Z,98994.99
2023-03-21T01:46:47.781Z,98994.20
2023-03-21T01:52:10.176Z,98996.77
2023-03-21T01:57:42.369Z,98994.50
2023-03-21T02:02:58.142Z,98991.70
2023-03-21T02:08:10.873Z,98988.40
2023-03-21T02:13:18.541Z,98989.26
2023-03-21T02:18:33.484Z,98985.38
2023-03-21T02:24:08.206Z,98988.34
2023-03-21T02:29:32.967Z,98988.12
2023-03-21T02:34:58.765Z,98985.62
2023-03-21T02:40:22.050Z,98985.27
2023-03-21T02:45:37.388Z,98984.54
2023-03-21T02:50:49.712Z,98983.84
2023-03-21T02:55:58.521Z,98978.77
2023-03-21T03:01:09.996Z,98983.63
2023-03-21T03:06:23.216Z,98988.27
2023-03-21T03:11:33.906Z,98985.11
2023-03-21T03:16:47.319Z,98982.36
2023-03-21T03:22:01.283Z,98981.73
2023-03-21T03:27:13.698Z,98981.73
2023-03-21T03:32:28.224Z,98982.13
2023-03-21T03:37:38.100Z,98980.71
2023-03-21T03:42:51.010Z,98981.00
2023-03-21T03:48:06.737Z,98979.58
2023-03-21T03:53:23.398Z,98981.60
2023-03-21T03:58:44.610Z,98982.69
2023-03-21T04:04:06.796Z,98985.59
2023-03-21T04:09:25.108Z,98988.08
2023-03-21T04:14:44.414Z,98987.20
2023-03-21T04:19:57.757Z,98983.65
2023-03-21T04:25:13.036Z,98981.05
2023-03-21T04:30:21.068Z,98981.64
2023-03-21T04:35:28.986Z,98980.54
2023-03-21T04:40:36.814Z,98983.16
2023-03-21T04:45:44.614Z,98984.35
2023-03-21T04:50:52.122Z,98986.33
2023-03-21T04:56:00.858Z,98984.89
2023-03-21T05:01:09.404Z,98987.98
2023-03-21T05:06:17.616Z,98985.23
2023-03-21T05:11:25.157Z,98989.70
2023-03-21T05:16:33.226Z,98993.66
2023-03-21T05:21:42.922Z,98992.46
2023-03-21T05:26:52.604Z,98992.86
2023-03-21T05:32:01.330Z,98995.49
2023-03-21T05:37:08.792Z,98997.73
2023-03-21T05:42:16.510Z,99008.89
2023-03-21T05:47:23.929Z,99016.18
2023-03-21T05:52:31.754Z,99015.79
2023-03-21T05:57:41.286Z,99017.89
2023-03-21T06:02:48.855Z,99023.80
2023-03-21T06:07:57.111Z,99023.48
2023-03-21T06:13:06.881Z,99023.34
2023-03-21T06:18:14.452Z,99026.81
2023-03-21T06:23:23.129Z,99027.42
2023-03-21T06:28:31.463Z,99021.79
2023-03-21T06:33:39.579Z,99029.26
2023-03-21T06:38:49.131Z,99027.98
2023-03-21T06:43:56.630Z,99024.06
2023-03-21T06:49:04.341Z,99033.09
2023-03-21T06:54:12.798Z,99033.77
2023-03-21T06:59:20.618Z,99037.56
2023-03-21T07:04:28.708Z,99039.24
2023-03-21T07:09:37.450Z,99033.34
2023-03-21T07:14:45.162Z,99038.06
2023-03-21T07:19:52.883Z,99039.70
2023-03-21T07:25:05.387Z,99039.67
2023-03-21T07:30:16.893Z,99039.52
2023-03-21T07:35:24.813Z,99038.18
2023-03-21T07:40:32.520Z,99038.72
2023-03-21T07:45:41.048Z,99043.64
2023-03-21T07:50:50.612Z,99041.38
2023-03-21T07:55:58.789Z,99050.86
2023-03-21T08:01:06.868Z,99052.20
2023-03-21T08:06:15.646Z,99052.75
2023-03-21T08:11:24.354Z,99048.15
2023-03-21T08:16:32.095Z,99050.83
2023-03-21T08:21:41.123Z,99055.73
2023-03-21T08:26:49.432Z,99056.92
2023-03-21T08:31:58.402Z,99053.54
2023-03-21T08:37:05.960Z,99056.94
2023-03-21T08:42:14.009Z,99061.30
2023-03-21T08:47:22.769Z,99068.85
2023-03-21T08:52:31.350Z,99069.80
2023-03-21T08:57:39.568Z,99069.15
2023-03-21T09:02:49.729Z,99070.65
2023-03-21T09:07:57.946Z,99070.13
2023-03-21T09:13:06.632Z,99071.47
2023-03-21T09:18:15.345Z,99070.11
2023-03-21T09:23:24.708Z,99074.34
2023-03-21T09:28:32.403Z,99082.75
2023-03-21T09:33:41.568Z,99088.59
2023-03-21T09:38:51.298Z,99088.73
2023-03-21T09:44:19.232Z,99086.75
2023-03-21T09:49:31.796Z,99086.35
2023-03-21T09:54:44.945Z,99086.95
2023-03-21T09:59:55.230Z,99087.62
2023-03-21T10:05:09.548Z,99088.65
2023-03-21T10:10:23.968Z,99088.44
2023-03-21T10:15:32.202Z,99086.40
2023-03-21T10:20:43.580Z,99091.05
2023-03-21T10:25:55.198Z,99092.80
2023-03-21T10:31:07.764Z,99097.11
2023-03-21T10:36:19.740Z,99097.83
2023-03-21T10:41:27.568Z,99092.32
2023-03-21T10:46:36.677Z,99090.75
2023-03-21T10:51:49.034Z,99094.85
2023-03-21T10:57:02.876Z,99097.16
2023-03-21T11:02:21.750Z,99092.23
2023-03-21T11:07:32.409Z,99088.25
2023-03-21T11:12:42.906Z,99088.43
2023-03-21T11:17:51.330Z,99090.73
2023-03-21T11:22:59.368Z,99093.45
2023-03-21T11:28:15.793Z,99089.30
2023-03-21T11:33:28.162Z,99089.59
2023-03-21T11:38:40.511Z,99087.30
2023-03-21T11:43:54.554Z,99082.10
2023-03-21T11:49:03.188Z,99078.33
2023-03-21T11:54:19.763Z,99078.96
2023-03-21T11:59:40.174Z,99074.08
2023-03-21T12:04:54.662Z,99074.14
2023-03-21T12:10:20.733Z,99074.79
2023-03-21T12:15:37.541Z,99067.04
2023-03-21T12:20:51.926Z,99065.07
2023-03-21T12:26:07.197Z,99065.99
2023-03-21T12:31:26.967Z,99058.52
2023-03-21T12:37:00.895Z,99058.63
2023-03-21T12:42:25.851Z,99060.33
2023-03-21T12:47:35.943Z,99055.56
2023-03-21T12:52:46.485Z,99054.59
2023-03-21T12:58:00.142Z,99055.80
2023-03-21T13:03:13.995Z,99053.70
2023-03-21T13:08:27.854Z,99052.59
2023-03-21T13:13:40.316Z,99047.58
2023-03-21T13:19:02.123Z,99045.70
2023-03-21T13:24:25.964Z,99038.70
2023-03-21T13:29:37.206Z,99037.44
2023-03-21T13:34:45.333Z,99035.14
2023-03-21T13:39:53.447Z,99031.34
2023-03-21T13:45:04.076Z,99030.11
2023-03-21T13:50:35.461Z,99033.50
2023-03-21T13:55:46.762Z,99036.41
2023-03-21T14:01:14.360Z,99033.09
2023-03-21T14:06:22.848Z,99034.67
2023-03-21T14:11:34.811Z,99038.03
2023-03-21T14:16:45.693Z,99035.75
2023-03-21T14:21:55.979Z,99038.31
2023-03-21T14:27:05.165Z,99036.11
2023-03-21T14:32:24.960Z,99038.95
2023-03-21T14:37:40.049Z,99029.62
2023-03-21T14:42:52.880Z,99027.83
2023-03-21T14:48:02.796Z,99026.23
2023-03-21T14:53:13.445Z,99024.90
2023-03-21T14:58:21.142Z,99019.29
2023-03-21T15:03:28.937Z,99020.61
2023-03-21T15:08:36.759Z,99019.91
2023-03-21T15:13:50.466Z,99015.94
2023-03-21T15:18:58.781Z,99014.34
2023-03-21T15:24:15.200Z,99011.95
2023-03-21T15:29:23.434Z,99009.00
2023-03-21T15:34:32.882Z,99013.33
2023-03-21T15:39:40.789Z,99013.26
2023-03-21T15:44:53.483Z,99015.40
2023-03-21T15:50:02.810Z,99012.45
2023-03-21T15:55:26.777Z,99012.79
2023-03-21T16:00:41.163Z,99015.95
2023-03-21T16:06:06.072Z,99015.31
2023-03-21T16:11:19.956Z,99015.42
2023-03-21T16:16:30.559Z,99014.13
2023-03-21T16:21:39.762Z,99019.39
2023-03-21T16:26:51.157Z,99023.21
2023-03-21T16:31:59.086Z,99027.35
2023-03-21T16:37:06.897Z,99024.90
2023-03-21T16:42:15.697Z,99026.45
2023-03-21T16:47:25.151Z,99027.93
2023-03-21T16:52:33.713Z,99029.83
2023-03-21T16:57:42.556Z,99028.87
2023-03-21T17:02:51.897Z,99032.64
2023-03-21T17:08:02.573Z,99034.45
2023-03-21T17:13:11.294Z,99031.66
2023-03-21T17:18:19.965Z,99035.28
2023-03-21T17:23:28.317Z,99042.44
2023-03-21T17:28:36.907Z,99044.02
2023-03-21T17:33:45.408Z,99047.85
2023-03-21T17:38:53.234Z,99046.23
2023-03-21T17:44:01.058Z,99048.32
2023-03-21T17:49:10.290Z,99050.42
2023-03-21T17:54:17.727Z,99050.17
2023-03-21T17:59:25.833Z,99050.61
2023-03-21T18:04:33.617Z,99046.05
2023-03-21T18:09:41.343Z,99050.35
2023-03-21T18:14:48.736Z,99053.05
2023-03-21T18:19:57.531Z,99062.82
2023-03-21T18:25:09.455Z,99069.77
2023-03-21T18:30:53.147Z,99067.96
2023-03-21T18:35:48.618Z,99068.30
2023-03-21T18:40:56.641Z,99069.75
2023-03-21T18:46:05.127Z,99065.77
2023-03-21T18:51:13.162Z,99069.58
2023-03-21T18:57:27.338Z,99068.98
2023-03-21T19:01:50.371Z,99072.48
2023-03-21T19:06:58.923Z,99072.81
2023-03-21T19:12:07.442Z,99074.00
2023-03-21T19:18:11.358Z,99072.65
2023-03-21T19:22:44.472Z,99070.70
2023-03-21T19:27:52.352Z,99072.14
2023-03-21T19:33:00.312Z,99073.31
2023-03-21T19:38:08.553Z,99072.70
2023-03-21T19:43:33.044Z,99075.30
2023-03-21T19:48:44.062Z,99079.45
2023-03-21T19:53:52.696Z,99077.61
2023-03-21T19:59:02.029Z,99084.83
2023-03-21T20:04:09.531Z,99085.80
2023-03-21T20:09:50.382Z,99086.20
2023-03-21T20:14:49.081Z,99085.21
2023-03-21T20:19:58.269Z,99083.42
2023-03-21T20:25:09.049Z,99084.30
2023-03-21T20:30:19.899Z,99081.33
2023-03-21T20:36:00.688Z,99082.92
2023-03-21T20:49:37.466Z,99082.14
2023-03-21T20:54:45.833Z,99080.48
2023-03-21T20:59:53.379Z,99077.27
2023-03-21T21:10:28.762Z,99074.97
2023-03-21T21:15:37.711Z,99074.19
2023-03-21T21:20:45.549Z,99073.09
2023-03-21T21:25:55.775Z,99081.16
2023-03-21T21:31:20.943Z,99077.73
2023-03-21T21:36:28.686Z,99078.51
2023-03-21T21:41:37.005Z,99075.41
2023-03-21T21:46:45.331Z,99075.91
2023-03-21T21:51:52.829Z,99075.33
2023-03-21T21:57:00.495Z,99072.78
2023-03-21T22:02:07.830Z,99070.71
2023-03-21T22:07:18.165Z,99071.98
2023-03-21T22:12:29.184Z,99076.62
2023-03-21T22:17:38.906Z,99079.06
2023-03-21T22:22:46.642Z,99080.95
2023-03-21T22:27:54.562Z,99071.36
2023-03-21T22:33:09.606Z,99073.33
2023-03-21T22:38:24.610Z,99069.46
2023-03-21T22:43:34.490Z,99067.13
2023-03-21T22:48:42.521Z,99063.48
2023-03-21T22:53:50.220Z,99065.27
2023-03-21T22:59:00.554Z,99055.69
2023-03-21T23:04:09.047Z,99060.34
2023-03-21T23:09:17.761Z,99060.91
2023-03-21T23:14:25.889Z,99057.65
2023-03-21T23:19:33.605Z,99057.18
2023-03-21T23:24:41.873Z,99046.73
2023-03-21T23:29:51.892Z,99049.08
2023-03-21T23:34:59.621Z,99049.45
2023-03-21T23:40:09.423Z,99053.09
2023-03-21T23:45:17.291Z,99045.77
2023-03-21T23:50:26.036Z,99042.23
2023-03-21T23:55:34.383Z,99042.15
